• Join FlightAware (Why Join?)
  • Login
  • US Flag 
12:43AM EDT


 

Airport Tracker/Info


-or-


 

Live Flight TrackerFlight Track Log ✈ ASQ5745 ✈ 31-May-2013 ✈ KIAD - KALB

Flight Track Log - Related Links

Times and Time Zones

All times are in EDT time to prevent confusion due to time zone crossing. See the ASQ5745 flight status page for this flight to view local times or setup timezone preferences in your user account.

Time Position Orientation Groundspeed Altitude Reporting Facility
EDT Latitude Longitude Course Direction KTS MPH feet Rate Location/Type
08:31AM 38.9667 -77.5167 North 177 204 1,700  Level Potomac TRACON
08:32AM 39.0000 -77.5833 303° West 250 288 3,400 1,980 Climbing Potomac TRACON
08:33AM 39.2141 -77.4500 North  Level FlightAware Approximate
08:34AM 39.3077 -77.4500 North  Level FlightAware Approximate
08:34AM 39.1786 -77.5731 North 285 328 8,600  Level Washington Center
08:35AM 39.4012 -77.4500 North  Level FlightAware Approximate
08:35AM 39.2603 -77.5511 12° North 290 334 10,600  Level Washington Center
08:36AM 39.4948 -77.4500 North  Level FlightAware Approximate
08:36AM 39.3522 -77.5294 10° North 309 356 11,600  Level Washington Center
08:37AM 39.4506 -77.5050 11° North 334 384 13,300 1,560 Climbing Washington Center
08:38AM 39.5489 -77.4781 12° North 350 403 14,700 1,380 Climbing Washington Center
08:40AM 39.7344 -77.4528 North 371 427 17,200 1,200 Climbing New York Center
08:41AM 39.8306 -77.4511 North 378 435 18,100 960 Climbing New York Center
08:42AM 39.9464 -77.4297 North 383 441 19,200 1,020 Climbing New York Center
08:43AM 40.0475 -77.3742 23° Northeast 383 441 20,200 960 Climbing New York Center
08:44AM 40.1489 -77.3158 24° Northeast 388 447 21,200 900 Climbing New York Center
08:45AM 40.2497 -77.2628 22° Northeast 393 452 22,100 840 Climbing New York Center
08:46AM 40.3467 -77.2039 25° Northeast 387 445 23,000 660 Climbing New York Center
08:47AM 40.4414 -77.1497 24° Northeast 395 455 23,500 480 Climbing New York Center
08:48AM 40.5447 -77.0883 24° Northeast 402 463 24,000 480 Climbing New York Center
08:49AM 40.6583 -77.0278 22° Northeast 402 463 24,500 480 Climbing New York Center
08:50AM 40.7725 -76.9969 12° North 409 471 25,000 480 Climbing New York Center
08:51AM 40.8903 -76.9775 North 409 471 25,500 540 Climbing New York Center
08:52AM 41.0011 -76.9325 17° North 415 478 26,100 540 Climbing New York Center
08:53AM 41.1067 -76.8625 27° Northeast 415 478 26,600 420 Climbing New York Center
08:54AM 41.2147 -76.7894 27° Northeast 421 484 27,000 180 Climbing New York Center
08:55AM 41.3206 -76.7158 28° Northeast 426 490 27,000  Level New York Center
08:56AM 41.4303 -76.6425 27° Northeast 431 496 27,000  Level New York Center
08:57AM 41.5425 -76.5664 27° Northeast 431 496 27,000  Level New York Center
08:58AM 41.6525 -76.4900 27° Northeast 436 502 27,000  Level New York Center
09:00AM 41.9025 -76.3150 28° Northeast 456 525 27,000 -300 Level Boston Center
09:01AM 42.0136 -76.2381 27° Northeast 456 525 26,100 -1,200 Descending Boston Center
09:02AM 42.1289 -76.1581 27° Northeast 456 525 24,600 -1,080 Descending Boston Center
09:03AM 42.2042 -76.0194 54° Northeast 443 510 24,000 -300 Descending Boston Center
09:04AM 42.2569 -75.8656 65° Northeast 435 501 24,000  Level Boston Center
09:05AM 42.3028 -75.7275 66° East 440 506 24,000  Level Boston Center
09:06AM 42.3572 -75.5703 65° Northeast 446 513 24,000 -840 Level Boston Center
09:07AM 42.4094 -75.4097 66° East 457 526 22,400 -1,800 Descending Boston Center
09:08AM 42.4492 -75.2483 72° East 457 526 20,400 -2,100 Descending Boston Center
09:09AM 42.4572 -75.0797 86° East 441 507 18,300 -1,980 Descending Boston Center
09:10AM 42.4650 -74.9197 86° East 441 507 16,500 -1,920 Descending Boston Center
09:11AM 42.4650 -74.8267 90° East 415 478 15,400 -2,220 Descending Boston Center
09:11AM 42.4708 -74.7453 84° East 428 493 14,300 -1,980 Descending Boston Center
09:12AM 42.4722 -74.6694 89° East 421 484 13,400 -1,920 Descending Boston Center
09:12AM 42.4781 -74.5881 84° East 422 486 12,400 -2,220 Descending Boston Center
09:13AM 42.4797 -74.5008 88° East 413 475 11,200 -1,320 Descending Boston Center
09:13AM 42.4850 -74.4361 84° East 416 479 11,100 -600 Descending Boston Center
09:14AM 42.4947 -74.3550 81° East 387 445 10,600 -900 Descending Boston Center
09:14AM 42.4997 -74.2986 83° East 389 448 10,200 -900 Descending Boston Center
09:15AM 42.5072 -74.2342 81° East 304 350 9,700 -1,500 Descending Boston Center
09:15AM 42.5119 -74.1864 82° East 318 366 8,700 -2,040 Descending Boston Center
09:16AM 42.5169 -74.1303 83° East 288 331 7,900 -1,620 Descending Boston Center
09:16AM 42.5242 -74.0739 80° East 296 341 7,100 -1,920 Descending Boston Center
09:17AM 42.5311 -74.0236 79° East 288 331 6,000 -2,100 Descending Boston Center
09:17AM 42.5361 -73.9700 83° East 290 334 5,000 -1,920 Descending Boston Center
09:18AM 42.5408 -73.9194 83° East 278 320 4,100 -1,800 Descending Boston Center
09:18AM 42.5456 -73.8772 81° East 280 322 3,200 -1,620 Descending Boston Center
09:19AM 42.5544 -73.8211 78° East 269 310 2,500 -720 Descending Boston Center
09:19AM 42.5839 -73.8019 26° Northeast 227 261 2,500  Level Boston Center